Allenwood, New York
Current Conditions -  °F | °C
As of 6:51 PM on Tuesday 25 Nov 2014 (Local Time) from KLGA Reporting Station
Overcast Overcast  
Wind Chill: 53°   Ceiling: 25000
Heat Index: 53°   Visibility: 10mi
Dew Point: 28°   Wind: 10mph
Humidity: 38%   Direction: 250°WSW
Pressure: 30.06"   Gusts: NA
Location:  40.786°N, 73.7291°W
Report Text: KLGA 252351Z 25009KT 10SM SCT150 OVC250 12/M02 A3006 RMK AO2 SLP178 T01171022 10128 20111 51019
Loading
Personal Weather Stations






























Interactive Weather Map New forecast layout! Learn more

10-Day Weather Forecast

Advertisements
Track Severe Weather on mobile